Time;durP1;ratioP1;P1;durP2;ratioP2;P2;SDS_P1;SDS_P2;PMS_P1;PMS_P2;Temp;Humidity;BMP_temperature;BMP_pressure;BME280_temperature;BME280_humidity;BME280_pressure;Samples;Min_cycle;Max_cycle;Signal;HPM_P1;HPM_P2
2023/05/12 00:01:01;;;;;;;;;;;9.80;99.90;;;;;;5021876;28;19976;-78
2023/05/12 00:03:27;;;;;;;;;;;9.70;99.90;;;;;;5036266;28;20023;-78
2023/05/12 00:05:54;;;;;;;;;;;9.70;99.90;;;;;;5040071;28;19940;-78
2023/05/12 00:08:21;;;;;;;;;;;9.70;99.90;;;;;;5024842;28;19939;-79
2023/05/12 00:10:48;;;;;;;;;;;9.60;99.90;;;;;;5041132;28;19928;-78
2023/05/12 00:13:15;;;;;;;;;;;9.60;99.90;;;;;;5040972;28;19990;-78
2023/05/12 00:15:41;;;;;;;;;;;9.60;99.90;;;;;;5041021;28;19929;-78
2023/05/12 00:18:08;;;;;;;;;;;9.60;99.90;;;;;;5024380;28;20011;-78
2023/05/12 00:20:35;;;;;;;;;;;9.60;99.90;;;;;;5042557;28;20296;-78
2023/05/12 00:23:02;;;;;;;;;;;9.60;99.90;;;;;;5024392;28;20501;-78
2023/05/12 00:25:29;;;;;;;;;;;9.50;99.90;;;;;;5041415;28;19947;-78
2023/05/12 00:27:56;;;;;;;;;;;9.50;99.90;;;;;;5041469;28;19986;-78
2023/05/12 00:30:22;;;;;;;;;;;9.60;99.90;;;;;;5040725;28;20024;-77
2023/05/12 00:32:49;;;;;;;;;;;9.60;99.90;;;;;;5024305;28;20031;-78
2023/05/12 00:35:16;;;;;;;;;;;9.60;99.90;;;;;;5040438;28;20331;-78
2023/05/12 00:37:43;;;;;;;;;;;9.60;99.90;;;;;;5041508;28;20055;-77
2023/05/12 00:40:09;;;;;;;;;;;9.60;99.90;;;;;;5023682;28;20279;-78
2023/05/12 00:42:36;;;;;;;;;;;9.50;99.90;;;;;;5040420;28;20015;-78
2023/05/12 00:45:03;;;;;;;;;;;9.50;99.90;;;;;;5023603;28;19933;-78
2023/05/12 00:47:31;;;;;;;;;;;9.50;99.90;;;;;;5040135;28;19951;-78
2023/05/12 00:49:58;;;;;;;;;;;9.50;99.90;;;;;;5023293;28;19940;-78
2023/05/12 00:52:25;;;;;;;;;;;9.50;99.90;;;;;;5040129;28;20376;-79
2023/05/12 00:54:52;;;;;;;;;;;9.40;99.90;;;;;;5040111;28;19924;-78
2023/05/12 00:57:18;;;;;;;;;;;9.40;99.90;;;;;;5023850;28;20214;-78
2023/05/12 00:59:45;;;;;;;;;;;9.40;99.90;;;;;;5040986;28;20327;-78
2023/05/12 01:02:12;;;;;;;;;;;9.40;99.90;;;;;;5039725;28;19948;-78
2023/05/12 01:04:39;;;;;;;;;;;9.30;99.90;;;;;;5036459;28;20357;-79
2023/05/12 01:07:08;;;;;;;;;;;9.30;99.90;;;;;;5040621;28;19924;-78
2023/05/12 01:09:35;;;;;;;;;;;9.30;99.90;;;;;;5042099;28;19968;-78
2023/05/12 01:12:02;;;;;;;;;;;9.30;99.90;;;;;;5055988;28;19979;-78
2023/05/12 01:14:29;;;;;;;;;;;9.20;99.90;;;;;;5041410;28;19929;-78
2023/05/12 01:16:57;;;;;;;;;;;9.20;99.90;;;;;;5039798;28;20447;-78
2023/05/12 01:19:36;;;;;;;;;;;9.20;99.90;;;;;;5039991;28;19925;-77
2023/05/12 01:22:03;;;;;;;;;;;9.30;99.90;;;;;;5039591;28;20249;-78
2023/05/12 01:24:30;;;;;;;;;;;9.30;99.90;;;;;;5039662;28;19925;-78
2023/05/12 01:26:57;;;;;;;;;;;9.10;99.90;;;;;;5039436;28;19929;-78
2023/05/12 01:29:23;;;;;;;;;;;9.20;99.90;;;;;;5023425;28;19928;-78
2023/05/12 01:31:50;;;;;;;;;;;9.20;99.90;;;;;;5037264;28;20173;-78
2023/05/12 01:34:17;;;;;;;;;;;9.20;99.90;;;;;;5035691;28;19925;-78
2023/05/12 01:36:44;;;;;;;;;;;9.10;99.90;;;;;;5036895;28;19932;-78
2023/05/12 01:39:11;;;;;;;;;;;9.10;99.90;;;;;;5031869;28;19925;-78
2023/05/12 01:41:38;;;;;;;;;;;9.10;99.90;;;;;;5024676;28;19932;-78
2023/05/12 01:44:04;;;;;;;;;;;9.20;99.90;;;;;;5041359;28;20290;-77
2023/05/12 01:46:31;;;;;;;;;;;9.20;99.90;;;;;;5041002;28;20094;-78
2023/05/12 01:48:58;;;;;;;;;;;9.30;99.90;;;;;;5040941;28;20505;-78
2023/05/12 01:51:24;;;;;;;;;;;9.40;99.90;;;;;;5024270;28;20283;-78
2023/05/12 01:53:51;;;;;;;;;;;9.60;99.90;;;;;;5021301;28;20368;-78
2023/05/12 01:56:18;;;;;;;;;;;9.80;99.90;;;;;;5040940;28;20006;-78
2023/05/12 01:58:45;;;;;;;;;;;10.00;99.90;;;;;;5041033;28;20380;-78
2023/05/12 02:01:12;;;;;;;;;;;10.10;99.90;;;;;;5040884;28;19936;-78
2023/05/12 02:03:39;;;;;;;;;;;10.30;99.90;;;;;;5040393;28;19935;-78
2023/05/12 02:06:06;;;;;;;;;;;10.40;99.90;;;;;;4703820;28;9999892;-78
2023/05/12 02:08:32;;;;;;;;;;;10.50;99.90;;;;;;5023514;28;20505;-78
2023/05/12 02:11:06;;;;;;;;;;;10.60;99.90;;;;;;5030246;28;20383;-78
2023/05/12 02:13:33;;;;;;;;;;;10.70;99.90;;;;;;5058878;28;20039;-78
2023/05/12 02:16:00;;;;;;;;;;;10.80;99.90;;;;;;5043395;28;20020;-78
2023/05/12 02:18:27;;;;;;;;;;;10.80;99.90;;;;;;5041577;28;19931;-78
2023/05/12 02:20:54;;;;;;;;;;;10.90;99.90;;;;;;5059003;28;19941;-78
2023/05/12 02:23:21;;;;;;;;;;;10.90;99.90;;;;;;5042984;28;19925;-78
2023/05/12 02:25:47;;;;;;;;;;;11.00;99.90;;;;;;5026055;28;19925;-78
2023/05/12 02:28:14;;;;;;;;;;;11.00;99.90;;;;;;5043484;28;19947;-78
2023/05/12 02:30:48;;;;;;;;;;;11.00;99.90;;;;;;5042561;28;19928;-78
2023/05/12 02:33:15;;;;;;;;;;;11.00;99.90;;;;;;5058074;28;19948;-78
2023/05/12 02:35:45;;;;;;;;;;;11.10;99.90;;;;;;5026411;28;20420;-78
2023/05/12 02:38:12;;;;;;;;;;;11.10;99.90;;;;;;5043722;28;19944;-78
2023/05/12 02:40:38;;;;;;;;;;;11.10;99.90;;;;;;5042633;28;19928;-78
2023/05/12 02:43:06;;;;;;;;;;;11.10;99.90;;;;;;5025930;28;19924;-78
2023/05/12 02:45:32;;;;;;;;;;;11.10;99.90;;;;;;5042679;28;20317;-79
2023/05/12 02:47:59;;;;;;;;;;;11.10;99.90;;;;;;5042228;28;19940;-79
2023/05/12 02:50:26;;;;;;;;;;;11.10;99.90;;;;;;5025716;28;19925;-81
2023/05/12 02:52:53;;;;;;;;;;;11.10;99.90;;;;;;5043221;28;19925;-79
2023/05/12 02:55:19;;;;;;;;;;;11.10;99.90;;;;;;5025505;28;20015;-78
2023/05/12 02:57:46;;;;;;;;;;;11.10;99.90;;;;;;5024950;28;19936;-79
2023/05/12 03:00:13;;;;;;;;;;;11.10;99.90;;;;;;5025939;28;19925;-78
2023/05/12 03:02:40;;;;;;;;;;;11.10;99.90;;;;;;5041907;28;19963;-78
2023/05/12 03:05:08;;;;;;;;;;;11.10;99.90;;;;;;5041726;28;20434;-78
2023/05/12 03:07:34;;;;;;;;;;;11.00;99.90;;;;;;5025378;28;19924;-79
2023/05/12 03:10:01;;;;;;;;;;;11.00;99.90;;;;;;5025514;28;19929;-78
2023/05/12 03:12:28;;;;;;;;;;;11.00;99.90;;;;;;5041685;28;19983;-78
2023/05/12 03:14:55;;;;;;;;;;;11.00;99.90;;;;;;5025523;28;19928;-78
2023/05/12 03:17:22;;;;;;;;;;;11.00;99.90;;;;;;5041588;28;19925;-78
2023/05/12 03:19:49;;;;;;;;;;;11.10;99.90;;;;;;5025082;28;20006;-79
2023/05/12 03:22:15;;;;;;;;;;;11.00;99.90;;;;;;5041008;28;19929;-78
2023/05/12 03:24:42;;;;;;;;;;;11.00;99.90;;;;;;5025498;28;20028;-78
2023/05/12 03:27:09;;;;;;;;;;;11.00;99.90;;;;;;5024904;28;20414;-78
2023/05/12 03:29:36;;;;;;;;;;;11.00;99.90;;;;;;5043320;28;19924;-78
2023/05/12 03:32:03;;;;;;;;;;;11.00;99.90;;;;;;5024303;28;20321;-78
2023/05/12 03:34:30;;;;;;;;;;;10.90;99.90;;;;;;5040999;28;19982;-78
2023/05/12 03:36:57;;;;;;;;;;;10.80;99.90;;;;;;5024183;28;19933;-78
2023/05/12 03:39:23;;;;;;;;;;;10.70;99.90;;;;;;5022623;28;19929;-79
2023/05/12 03:41:50;;;;;;;;;;;10.70;99.90;;;;;;5054396;28;19929;-78
2023/05/12 03:44:17;;;;;;;;;;;10.70;99.90;;;;;;5045453;28;19925;-78
2023/05/12 03:46:44;;;;;;;;;;;10.70;99.90;;;;;;5044566;28;19925;-78
2023/05/12 03:49:11;;;;;;;;;;;10.70;99.90;;;;;;5046485;28;19986;-78
2023/05/12 03:51:38;;;;;;;;;;;10.70;99.90;;;;;;5027981;28;19983;-78
2023/05/12 03:54:04;;;;;;;;;;;10.70;99.90;;;;;;5062361;28;19925;-78
2023/05/12 03:56:31;;;;;;;;;;;10.80;99.90;;;;;;5061181;28;20325;-78
2023/05/12 03:58:58;;;;;;;;;;;10.80;99.90;;;;;;5061467;28;19929;-78
2023/05/12 04:01:24;;;;;;;;;;;10.80;99.90;;;;;;5044600;28;19935;-78
2023/05/12 04:03:51;;;;;;;;;;;10.90;99.90;;;;;;5060513;28;19931;-78
2023/05/12 04:06:18;;;;;;;;;;;10.90;99.90;;;;;;5044150;28;19925;-78
2023/05/12 04:08:45;;;;;;;;;;;10.90;99.90;;;;;;5044279;28;19929;-78
2023/05/12 04:11:12;;;;;;;;;;;10.90;99.90;;;;;;5044112;28;20284;-78
2023/05/12 04:13:39;;;;;;;;;;;10.90;99.90;;;;;;5045970;28;19925;-78
2023/05/12 04:16:06;;;;;;;;;;;10.80;99.90;;;;;;5028404;28;20150;-78
2023/05/12 04:18:34;;;;;;;;;;;10.80;99.90;;;;;;5045102;28;19935;-79
2023/05/12 04:21:01;;;;;;;;;;;10.70;99.90;;;;;;5044073;28;19925;-78
2023/05/12 04:23:28;;;;;;;;;;;10.70;99.90;;;;;;5044679;28;19928;-78
2023/05/12 04:25:55;;;;;;;;;;;10.70;99.90;;;;;;5027876;28;19964;-78
2023/05/12 04:28:22;;;;;;;;;;;10.70;99.90;;;;;;5044459;28;19955;-78
2023/05/12 04:30:48;;;;;;;;;;;10.70;99.90;;;;;;5045903;28;19928;-78
2023/05/12 04:33:15;;;;;;;;;;;10.70;99.90;;;;;;5027052;28;20019;-78
2023/05/12 04:35:41;;;;;;;;;;;10.60;99.90;;;;;;5028476;28;20303;-78
2023/05/12 04:38:08;;;;;;;;;;;10.70;99.90;;;;;;5043936;28;20240;-78
2023/05/12 04:40:35;;;;;;;;;;;10.70;99.90;;;;;;5044721;28;20009;-78
2023/05/12 04:43:02;;;;;;;;;;;10.70;99.90;;;;;;5044143;28;19975;-78
2023/05/12 04:45:29;;;;;;;;;;;10.80;99.90;;;;;;5039962;28;20019;-77
2023/05/12 04:47:55;;;;;;;;;;;10.80;99.90;;;;;;5059745;28;19932;-79
2023/05/12 04:50:22;;;;;;;;;;;10.70;99.90;;;;;;5041964;28;19948;-79
2023/05/12 04:52:50;;;;;;;;;;;10.80;99.90;;;;;;5024285;28;20575;-78
2023/05/12 04:55:16;;;;;;;;;;;10.80;99.90;;;;;;5041856;28;19944;-77
2023/05/12 04:57:43;;;;;;;;;;;10.80;99.90;;;;;;5030009;28;19929;-78
2023/05/12 05:00:10;;;;;;;;;;;10.80;99.90;;;;;;5051050;28;20011;-78
2023/05/12 05:02:37;;;;;;;;;;;10.80;99.90;;;;;;5021436;28;20990;-78
2023/05/12 05:05:05;;;;;;;;;;;10.80;99.90;;;;;;5046039;28;19932;-77
2023/05/12 05:07:31;;;;;;;;;;;10.80;99.90;;;;;;5037431;28;19937;-76
2023/05/12 05:09:58;;;;;;;;;;;10.80;99.90;;;;;;5053869;28;19928;-77
2023/05/12 05:12:25;;;;;;;;;;;10.70;99.90;;;;;;5049646;28;20426;-78
2023/05/12 05:14:52;;;;;;;;;;;10.70;99.90;;;;;;5036919;28;19929;-78
2023/05/12 05:17:18;;;;;;;;;;;10.70;99.90;;;;;;5019672;28;19929;-76
2023/05/12 05:19:45;;;;;;;;;;;10.70;99.90;;;;;;5018458;28;19940;-76
2023/05/12 05:22:23;;;;;;;;;;;10.70;99.90;;;;;;5032127;28;20380;-76
2023/05/12 05:24:50;;;;;;;;;;;10.70;99.90;;;;;;5037416;28;19963;-78
2023/05/12 05:27:17;;;;;;;;;;;10.70;99.90;;;;;;5038717;28;19928;-78
2023/05/12 05:29:45;;;;;;;;;;;10.80;99.90;;;;;;5027652;28;19947;-78
2023/05/12 05:32:11;;;;;;;;;;;10.80;99.90;;;;;;5032686;28;19928;-78
2023/05/12 05:34:38;;;;;;;;;;;10.80;99.90;;;;;;5020391;28;19994;-79
2023/05/12 05:37:05;;;;;;;;;;;10.80;99.90;;;;;;5036716;28;19925;-78
2023/05/12 05:39:32;;;;;;;;;;;10.80;99.90;;;;;;5038311;28;20024;-78
2023/05/12 05:41:58;;;;;;;;;;;10.80;99.90;;;;;;5023145;28;19932;-77
2023/05/12 05:44:25;;;;;;;;;;;10.90;99.90;;;;;;5034882;28;19989;-77
2023/05/12 05:46:52;;;;;;;;;;;10.90;99.90;;;;;;5031391;28;19929;-77
2023/05/12 05:49:19;;;;;;;;;;;11.00;99.90;;;;;;5020459;28;19936;-77
2023/05/12 05:51:45;;;;;;;;;;;11.00;99.90;;;;;;5036964;28;20008;-77
2023/05/12 05:54:12;;;;;;;;;;;11.00;99.90;;;;;;5035337;28;20173;-77
2023/05/12 05:56:39;;;;;;;;;;;11.10;99.90;;;;;;5014941;28;20400;-77
2023/05/12 05:59:06;;;;;;;;;;;11.20;99.90;;;;;;5037743;28;19955;-77
2023/05/12 06:01:33;;;;;;;;;;;11.20;99.90;;;;;;5031672;28;19931;-76
2023/05/12 06:03:59;;;;;;;;;;;11.30;99.90;;;;;;5038845;28;19929;-77
2023/05/12 06:06:27;;;;;;;;;;;11.30;99.90;;;;;;5017732;28;19933;-77
2023/05/12 06:08:54;;;;;;;;;;;11.40;99.90;;;;;;5029901;28;20029;-77
2023/05/12 06:11:21;;;;;;;;;;;11.50;99.90;;;;;;5037835;28;19929;-77
2023/05/12 06:13:48;;;;;;;;;;;11.70;99.90;;;;;;5030477;28;19929;-76
2023/05/12 06:16:15;;;;;;;;;;;11.80;99.90;;;;;;5033304;28;19925;-76
2023/05/12 06:18:41;;;;;;;;;;;11.80;99.90;;;;;;5017839;28;19936;-76
2023/05/12 06:21:08;;;;;;;;;;;11.80;99.90;;;;;;5032316;28;19935;-76
2023/05/12 06:23:35;;;;;;;;;;;11.90;99.90;;;;;;5043652;28;20215;-76
2023/05/12 06:26:02;;;;;;;;;;;12.00;99.90;;;;;;5042463;28;20020;-76
2023/05/12 06:28:28;;;;;;;;;;;12.00;99.90;;;;;;5017655;28;19940;-76
2023/05/12 06:30:55;;;;;;;;;;;12.00;99.90;;;;;;5039178;28;19933;-76
2023/05/12 06:33:22;;;;;;;;;;;12.10;99.90;;;;;;5034868;28;19928;-77
2023/05/12 06:35:49;;;;;;;;;;;12.20;99.90;;;;;;5043174;28;19986;-77
2023/05/12 06:38:15;;;;;;;;;;;12.20;99.90;;;;;;5038485;28;19971;-77
2023/05/12 06:40:42;;;;;;;;;;;12.30;99.90;;;;;;5033069;28;19933;-76
2023/05/12 06:43:08;;;;;;;;;;;12.30;99.90;;;;;;5038000;28;19924;-76
2023/05/12 06:45:35;;;;;;;;;;;12.40;99.90;;;;;;5049344;28;20688;-77
2023/05/12 06:48:04;;;;;;;;;;;12.40;99.90;;;;;;5041464;28;19990;-76
2023/05/12 06:50:31;;;;;;;;;;;12.50;99.90;;;;;;5023253;28;20296;-77
2023/05/12 06:52:58;;;;;;;;;;;12.60;99.90;;;;;;5025307;28;20322;-76
2023/05/12 06:55:25;;;;;;;;;;;12.60;99.90;;;;;;5027260;28;20043;-77
2023/05/12 06:57:54;;;;;;;;;;;12.70;99.90;;;;;;5011975;28;20141;-76
2023/05/12 07:00:22;;;;;;;;;;;12.80;99.90;;;;;;5016360;28;20037;-76
2023/05/12 07:02:48;;;;;;;;;;;12.80;99.90;;;;;;5038056;28;19932;-75
2023/05/12 07:05:15;;;;;;;;;;;12.70;99.90;;;;;;5031445;28;19936;-76
2023/05/12 07:07:42;;;;;;;;;;;12.70;99.90;;;;;;5037548;28;20018;-76
2023/05/12 07:10:09;;;;;;;;;;;12.70;99.90;;;;;;5034041;28;19928;-77
2023/05/12 07:12:37;;;;;;;;;;;12.70;99.90;;;;;;5049858;28;20368;-76
2023/05/12 07:15:03;;;;;;;;;;;12.90;99.90;;;;;;5037482;28;20036;-76
2023/05/12 07:17:30;;;;;;;;;;;12.90;99.90;;;;;;5039492;28;19935;-76
2023/05/12 07:19:57;;;;;;;;;;;13.00;99.90;;;;;;5040110;28;19955;-77
2023/05/12 07:22:24;;;;;;;;;;;13.10;99.90;;;;;;5039886;28;19928;-77
2023/05/12 07:24:51;;;;;;;;;;;13.20;99.90;;;;;;5040331;28;19929;-77
2023/05/12 07:27:17;;;;;;;;;;;13.20;99.90;;;;;;5023493;28;19936;-76
2023/05/12 07:29:44;;;;;;;;;;;13.20;99.90;;;;;;5040921;28;19928;-76
2023/05/12 07:32:11;;;;;;;;;;;13.10;99.90;;;;;;5041177;28;19929;-76
2023/05/12 07:34:37;;;;;;;;;;;13.00;99.90;;;;;;5023507;28;20050;-76
2023/05/12 07:37:05;;;;;;;;;;;13.10;99.90;;;;;;5039096;28;20008;-76
2023/05/12 07:39:32;;;;;;;;;;;13.30;99.90;;;;;;5041134;28;19933;-76
2023/05/12 07:41:58;;;;;;;;;;;13.40;99.90;;;;;;5038836;28;20015;-76
2023/05/12 07:44:25;;;;;;;;;;;13.50;99.90;;;;;;5041141;28;19929;-76
2023/05/12 07:46:53;;;;;;;;;;;13.50;99.90;;;;;;5029284;28;20056;-75
2023/05/12 07:49:22;;;;;;;;;;;13.60;99.90;;;;;;5033143;28;20006;-76
2023/05/12 07:51:49;;;;;;;;;;;13.60;99.90;;;;;;5038482;28;19935;-76
2023/05/12 07:54:15;;;;;;;;;;;13.60;99.90;;;;;;5024926;28;19975;-76
2023/05/12 07:56:42;;;;;;;;;;;13.70;99.90;;;;;;5043791;28;20320;-76
2023/05/12 07:59:09;;;;;;;;;;;13.90;99.90;;;;;;5059731;28;19929;-76
2023/05/12 08:01:36;;;;;;;;;;;13.90;99.90;;;;;;5048331;28;20019;-76
2023/05/12 08:04:03;;;;;;;;;;;13.80;99.90;;;;;;5047422;28;19979;-76
2023/05/12 08:06:30;;;;;;;;;;;13.70;99.90;;;;;;5024398;28;20020;-76
2023/05/12 08:08:57;;;;;;;;;;;13.80;99.90;;;;;;5028481;28;20622;-76
2023/05/12 08:11:24;;;;;;;;;;;13.70;99.90;;;;;;5045485;28;20087;-75
2023/05/12 08:13:52;;;;;;;;;;;13.70;99.90;;;;;;5047068;28;19925;-76
2023/05/12 08:16:19;;;;;;;;;;;13.80;99.90;;;;;;5028454;28;20257;-75
2023/05/12 08:18:46;;;;;;;;;;;13.90;99.90;;;;;;5042291;28;19968;-76
2023/05/12 08:21:12;;;;;;;;;;;14.10;99.90;;;;;;5037825;28;20419;-76
2023/05/12 08:23:39;;;;;;;;;;;14.20;99.90;;;;;;5042226;28;20454;-76
2023/05/12 08:26:06;;;;;;;;;;;14.00;99.90;;;;;;5029991;28;19932;-76
2023/05/12 08:28:33;;;;;;;;;;;13.90;99.90;;;;;;5040928;28;19936;-76
2023/05/12 08:30:59;;;;;;;;;;;14.00;99.90;;;;;;5022292;28;19971;-76
2023/05/12 08:33:30;;;;;;;;;;;14.00;99.90;;;;;;5031721;28;20010;-76
2023/05/12 08:35:56;;;;;;;;;;;13.90;99.90;;;;;;5047309;28;19935;-76
2023/05/12 08:38:23;;;;;;;;;;;13.80;99.90;;;;;;5027902;28;19940;-76
2023/05/12 08:41:02;;;;;;;;;;;13.90;99.90;;;;;;5059216;28;19925;-75
2023/05/12 08:43:31;;;;;;;;;;;14.00;99.90;;;;;;5036362;28;20024;-75
2023/05/12 08:45:57;;;;;;;;;;;14.20;99.90;;;;;;5058937;28;19925;-75
2023/05/12 08:48:26;;;;;;;;;;;14.40;99.90;;;;;;5028481;28;19924;-75
2023/05/12 08:50:53;;;;;;;;;;;14.40;99.90;;;;;;5040551;28;19928;-75
2023/05/12 08:53:21;;;;;;;;;;;14.50;99.90;;;;;;5038437;28;19929;-77
2023/05/12 08:55:47;;;;;;;;;;;14.40;99.90;;;;;;5025558;28;19933;-76
2023/05/12 08:58:35;;;;;;;;;;;14.40;99.90;;;;;;5039545;28;19925;-76
2023/05/12 09:01:07;;;;;;;;;;;14.40;99.90;;;;;;5041642;28;20384;-76
2023/05/12 09:03:34;;;;;;;;;;;14.40;99.90;;;;;;5042068;28;19935;-76
2023/05/12 09:06:02;;;;;;;;;;;14.20;99.90;;;;;;5026537;28;19938;-76
2023/05/12 09:08:30;;;;;;;;;;;14.30;99.90;;;;;;5026806;28;20020;-76
2023/05/12 09:10:57;;;;;;;;;;;14.40;99.90;;;;;;5043799;28;19971;-76
2023/05/12 09:13:39;;;;;;;;;;;14.40;99.90;;;;;;5025718;28;20372;-76
2023/05/12 09:16:06;;;;;;;;;;;14.30;99.90;;;;;;5026901;28;20376;-77
2023/05/12 09:18:53;;;;;;;;;;;14.30;99.90;;;;;;5027328;28;19987;-77
2023/05/12 09:21:20;;;;;;;;;;;14.10;99.90;;;;;;5042878;28;19925;-76
2023/05/12 09:23:53;;;;;;;;;;;14.10;99.90;;;;;;5030139;28;19942;-77
2023/05/12 09:26:21;;;;;;;;;;;14.20;99.90;;;;;;5050691;28;19924;-77
2023/05/12 09:28:48;;;;;;;;;;;14.30;99.90;;;;;;5028364;28;19929;-76
2023/05/12 09:31:16;;;;;;;;;;;14.50;99.90;;;;;;5045941;28;20096;-76
2023/05/12 09:33:43;;;;;;;;;;;14.60;99.90;;;;;;5041797;28;19932;-76
2023/05/12 09:36:10;;;;;;;;;;;14.50;99.90;;;;;;5043573;28;20023;-76
2023/05/12 09:38:37;;;;;;;;;;;14.60;99.90;;;;;;5058177;28;19948;-76
2023/05/12 09:41:03;;;;;;;;;;;14.60;99.90;;;;;;5043817;28;19929;-77
2023/05/12 09:43:30;;;;;;;;;;;14.60;99.90;;;;;;5044029;28;20470;-77
2023/05/12 09:46:03;;;;;;;;;;;14.70;99.90;;;;;;5060974;28;20007;-77
2023/05/12 09:48:29;;;;;;;;;;;14.70;99.90;;;;;;5031285;28;20015;-76
2023/05/12 09:50:56;;;;;;;;;;;14.80;99.90;;;;;;5043591;28;20051;-77
2023/05/12 09:53:23;;;;;;;;;;;14.60;99.90;;;;;;5042224;28;19933;-77
2023/05/12 09:55:50;;;;;;;;;;;14.40;99.90;;;;;;5021932;28;20522;-77
2023/05/12 09:58:17;;;;;;;;;;;14.40;99.90;;;;;;5043841;28;19933;-76
2023/05/12 10:00:44;;;;;;;;;;;14.10;99.90;;;;;;5045177;28;19991;-77
2023/05/12 10:03:31;;;;;;;;;;;14.10;99.90;;;;;;5036007;28;19929;-77
2023/05/12 10:05:59;;;;;;;;;;;13.80;99.90;;;;;;5049454;28;19937;-77
2023/05/12 10:08:28;;;;;;;;;;;13.70;99.90;;;;;;5038419;28;20016;-77
2023/05/12 10:10:55;;;;;;;;;;;13.60;99.90;;;;;;5046593;28;20015;-77
2023/05/12 10:13:22;;;;;;;;;;;13.70;99.90;;;;;;5041697;28;20016;-77
2023/05/12 10:15:49;;;;;;;;;;;13.60;99.90;;;;;;5039819;28;20002;-77
2023/05/12 10:18:16;;;;;;;;;;;13.60;99.90;;;;;;5058190;28;19929;-77
2023/05/12 10:20:43;;;;;;;;;;;13.50;99.90;;;;;;5042425;28;19978;-77
2023/05/12 10:23:12;;;;;;;;;;;13.60;99.90;;;;;;5040323;28;19933;-77
2023/05/12 10:25:42;;;;;;;;;;;13.60;99.90;;;;;;5037545;28;19990;-77
2023/05/12 10:28:09;;;;;;;;;;;13.40;99.90;;;;;;5032982;28;19924;-77
2023/05/12 10:30:37;;;;;;;;;;;13.40;99.90;;;;;;5050771;28;20150;-77
2023/05/12 10:33:04;;;;;;;;;;;13.20;99.90;;;;;;5044144;28;19924;-77
2023/05/12 10:35:32;;;;;;;;;;;13.00;99.90;;;;;;5055556;28;19944;-76
2023/05/12 10:38:08;;;;;;;;;;;12.90;99.90;;;;;;5053822;28;19936;-76
2023/05/12 10:40:36;;;;;;;;;;;12.70;99.90;;;;;;5038138;28;19925;-77
2023/05/12 10:43:03;;;;;;;;;;;12.70;99.90;;;;;;5036641;28;19924;-76
2023/05/12 10:45:36;;;;;;;;;;;12.60;99.90;;;;;;5045730;28;19959;-77
2023/05/12 10:48:03;;;;;;;;;;;12.60;99.90;;;;;;5039251;28;19960;-77
2023/05/12 10:50:30;;;;;;;;;;;12.50;99.90;;;;;;5041584;28;19939;-77
2023/05/12 10:52:57;;;;;;;;;;;12.50;99.90;;;;;;5047233;28;19924;-77
2023/05/12 10:55:30;;;;;;;;;;;12.60;99.90;;;;;;5057988;28;19924;-77
2023/05/12 10:58:10;;;;;;;;;;;12.50;99.90;;;;;;5043605;28;19929;-76
2023/05/12 11:00:48;;;;;;;;;;;12.40;99.90;;;;;;5042021;28;23488;-77
2023/05/12 11:03:16;;;;;;;;;;;12.40;99.90;;;;;;5019566;28;20019;-78
2023/05/12 11:05:45;;;;;;;;;;;12.40;99.90;;;;;;5046805;28;19925;-77
2023/05/12 11:08:14;;;;;;;;;;;12.40;99.90;;;;;;5048221;28;19925;-77
2023/05/12 11:10:42;;;;;;;;;;;12.30;99.90;;;;;;5022978;28;20288;-77
2023/05/12 11:13:09;;;;;;;;;;;12.30;99.90;;;;;;5037225;28;19925;-77
2023/05/12 11:15:35;;;;;;;;;;;12.30;99.90;;;;;;5022745;28;20482;-78
2023/05/12 11:18:02;;;;;;;;;;;12.20;99.90;;;;;;5025680;28;19929;-78
2023/05/12 11:20:29;;;;;;;;;;;12.30;99.90;;;;;;5036185;28;20465;-77
2023/05/12 11:22:57;;;;;;;;;;;12.30;99.90;;;;;;5034895;28;20298;-77
2023/05/12 11:25:25;;;;;;;;;;;12.40;99.90;;;;;;5035702;28;19955;-78
2023/05/12 11:27:51;;;;;;;;;;;12.40;99.90;;;;;;5035920;28;19928;-78
2023/05/12 11:30:18;;;;;;;;;;;12.40;99.90;;;;;;5051273;28;19935;-77
2023/05/12 11:32:45;;;;;;;;;;;12.30;99.90;;;;;;5042405;28;20022;-77
2023/05/12 11:35:16;;;;;;;;;;;12.40;99.90;;;;;;5027479;28;20404;-77
2023/05/12 11:37:43;;;;;;;;;;;12.30;99.90;;;;;;5031545;28;19999;-77
2023/05/12 11:40:20;;;;;;;;;;;12.20;99.90;;;;;;5043641;28;19924;-77
2023/05/12 11:42:50;;;;;;;;;;;12.20;99.90;;;;;;5031170;28;20364;-77
2023/05/12 11:45:27;;;;;;;;;;;12.10;99.90;;;;;;5043003;28;20036;-78
2023/05/12 11:48:11;;;;;;;;;;;12.00;99.90;;;;;;5048337;28;19936;-78
2023/05/12 11:50:38;;;;;;;;;;;12.00;99.90;;;;;;5042129;28;19998;-78
2023/05/12 11:53:08;;;;;;;;;;;12.00;99.90;;;;;;5033640;28;19929;-77
2023/05/12 11:55:35;;;;;;;;;;;12.00;99.90;;;;;;5048413;28;19928;-77
2023/05/12 11:58:02;;;;;;;;;;;11.90;99.90;;;;;;5045871;28;19928;-77
2023/05/12 12:00:30;;;;;;;;;;;12.00;99.90;;;;;;5040136;28;19975;-76
2023/05/12 12:03:10;;;;;;;;;;;12.10;99.90;;;;;;5028282;28;19961;-77
2023/05/12 12:05:38;;;;;;;;;;;12.10;99.90;;;;;;5023245;28;19941;-77
2023/05/12 12:08:05;;;;;;;;;;;12.10;99.90;;;;;;5024330;28;19929;-77
2023/05/12 12:10:32;;;;;;;;;;;12.10;99.90;;;;;;5020271;28;20287;-78
2023/05/12 12:13:00;;;;;;;;;;;12.10;99.90;;;;;;5050784;28;20278;-77
2023/05/12 12:15:27;;;;;;;;;;;12.10;99.90;;;;;;5040557;28;19935;-78
2023/05/12 12:17:54;;;;;;;;;;;12.00;99.90;;;;;;5038671;28;19955;-78
2023/05/12 12:20:23;;;;;;;;;;;11.90;99.90;;;;;;5056280;28;19964;-79
2023/05/12 12:22:50;;;;;;;;;;;11.90;99.90;;;;;;5029644;28;19932;-80
2023/05/12 12:25:18;;;;;;;;;;;11.90;99.90;;;;;;5033476;28;20013;-79
2023/05/12 12:27:45;;;;;;;;;;;12.00;99.90;;;;;;5006941;28;19929;-79
2023/05/12 12:30:13;;;;;;;;;;;12.00;99.90;;;;;;5049336;28;20537;-80
2023/05/12 12:32:40;;;;;;;;;;;12.10;99.90;;;;;;5028631;28;20299;-78
2023/05/12 12:35:07;;;;;;;;;;;12.20;99.90;;;;;;5034875;28;20034;-79
2023/05/12 12:37:34;;;;;;;;;;;12.20;99.90;;;;;;5037832;28;19928;-80
2023/05/12 12:40:06;;;;;;;;;;;12.20;99.90;;;;;;5040335;28;20811;-80
2023/05/12 12:42:34;;;;;;;;;;;12.20;99.90;;;;;;5042900;28;19929;-80
2023/05/12 12:45:04;;;;;;;;;;;12.20;99.90;;;;;;5030552;28;19969;-80
2023/05/12 12:47:31;;;;;;;;;;;12.20;99.90;;;;;;5044429;28;19932;-80
2023/05/12 12:49:58;;;;;;;;;;;12.30;99.90;;;;;;5021437;28;19936;-81
2023/05/12 12:52:25;;;;;;;;;;;12.30;99.90;;;;;;5029911;28;19964;-79
2023/05/12 12:54:52;;;;;;;;;;;12.30;99.90;;;;;;5047144;28;20021;-78
2023/05/12 12:57:20;;;;;;;;;;;12.30;99.90;;;;;;5038854;28;19929;-79
2023/05/12 12:59:48;;;;;;;;;;;12.30;99.90;;;;;;5035273;28;20026;-78
2023/05/12 13:02:15;;;;;;;;;;;12.20;99.90;;;;;;5017471;28;20376;-79
2023/05/12 13:04:42;;;;;;;;;;;12.10;99.90;;;;;;5038022;28;19929;-79
2023/05/12 13:07:09;;;;;;;;;;;12.10;99.90;;;;;;5049131;28;19939;-78
2023/05/12 13:09:35;;;;;;;;;;;12.10;99.90;;;;;;5038224;28;19929;-77
2023/05/12 13:12:02;;;;;;;;;;;12.10;99.90;;;;;;5023529;28;19935;-77
2023/05/12 13:14:29;;;;;;;;;;;12.00;99.90;;;;;;5025936;28;19928;-78
2023/05/12 13:16:56;;;;;;;;;;;11.90;99.90;;;;;;5029816;28;20048;-78
2023/05/12 13:19:23;;;;;;;;;;;11.90;99.90;;;;;;5039313;28;20662;-79
2023/05/12 13:21:50;;;;;;;;;;;11.90;99.90;;;;;;5036566;28;20399;-78
2023/05/12 13:24:16;;;;;;;;;;;11.90;99.90;;;;;;5019726;28;20319;-78
2023/05/12 13:26:43;;;;;;;;;;;11.90;99.90;;;;;;5028291;28;19935;-78
2023/05/12 13:29:10;;;;;;;;;;;11.90;99.90;;;;;;5030002;28;19928;-76
2023/05/12 13:31:37;;;;;;;;;;;11.80;99.90;;;;;;5053994;28;19971;-75
2023/05/12 13:34:04;;;;;;;;;;;11.80;99.90;;;;;;5020702;28;19986;-76
2023/05/12 13:36:33;;;;;;;;;;;11.80;99.90;;;;;;5029203;28;19929;-76
2023/05/12 13:39:01;;;;;;;;;;;11.80;99.90;;;;;;5017403;28;19964;-76
2023/05/12 13:41:28;;;;;;;;;;;11.70;99.90;;;;;;5001561;28;19976;-77
2023/05/12 13:43:55;;;;;;;;;;;11.70;99.90;;;;;;5037005;28;19939;-79
2023/05/12 13:46:21;;;;;;;;;;;11.70;99.90;;;;;;5037901;28;20056;-76
2023/05/12 13:48:50;;;;;;;;;;;11.70;99.90;;;;;;5038308;28;20376;-76
2023/05/12 13:51:17;;;;;;;;;;;11.70;99.90;;;;;;5021731;28;20006;-76
2023/05/12 13:53:44;;;;;;;;;;;11.70;99.90;;;;;;5020524;28;19936;-76
2023/05/12 13:56:10;;;;;;;;;;;11.70;99.90;;;;;;5037648;28;20398;-76
2023/05/12 13:58:37;;;;;;;;;;;11.70;99.90;;;;;;5037545;28;20016;-77
2023/05/12 14:01:04;;;;;;;;;;;11.70;99.90;;;;;;5039322;28;19980;-78
2023/05/12 14:03:34;;;;;;;;;;;11.70;99.90;;;;;;5020133;28;19928;-78
2023/05/12 14:06:03;;;;;;;;;;;11.70;99.90;;;;;;5038154;28;19928;-77
2023/05/12 14:08:30;;;;;;;;;;;11.70;99.90;;;;;;5036888;28;19936;-79
2023/05/12 14:10:57;;;;;;;;;;;11.70;99.90;;;;;;5036893;28;19934;-78
2023/05/12 14:13:24;;;;;;;;;;;11.70;99.90;;;;;;5019679;28;19925;-78
2023/05/12 14:15:52;;;;;;;;;;;11.60;99.90;;;;;;5017495;28;19940;-78
2023/05/12 14:18:19;;;;;;;;;;;11.60;99.90;;;;;;5046747;28;20704;-76
2023/05/12 14:20:46;;;;;;;;;;;11.50;99.90;;;;;;5033005;28;20040;-78